Time;durP1;ratioP1;P1;durP2;ratioP2;P2;SDS_P1;SDS_P2;PMS_P1;PMS_P2;Temp;Humidity;BMP_temperature;BMP_pressure;BME280_temperature;BME280_humidity;BME280_pressure;Samples;Min_cycle;Max_cycle;Signal;HPM_P1;HPM_P2
2023/08/10 00:00:12;;;;;;;;;;;21.80;80.90;;;;;;4972810;28;19921;-69
2023/08/10 00:02:39;;;;;;;;;;;21.90;80.60;;;;;;4971671;28;20283;-70
2023/08/10 00:05:06;;;;;;;;;;;22.30;82.30;;;;;;4973159;28;19917;-70
2023/08/10 00:07:34;;;;;;;;;;;22.80;72.90;;;;;;4972624;28;20457;-69
2023/08/10 00:10:02;;;;;;;;;;;22.70;75.50;;;;;;4971611;28;20368;-69
2023/08/10 00:12:29;;;;;;;;;;;22.70;71.10;;;;;;4972545;28;24072;-69
2023/08/10 00:14:56;;;;;;;;;;;22.80;69.40;;;;;;4973187;28;19953;-70
2023/08/10 00:17:23;;;;;;;;;;;23.20;68.10;;;;;;4974013;28;19906;-70
2023/08/10 00:19:50;;;;;;;;;;;22.90;67.40;;;;;;4973886;28;19914;-70
2023/08/10 00:22:16;;;;;;;;;;;22.90;65.60;;;;;;4989364;28;19944;-69
2023/08/10 00:24:43;;;;;;;;;;;23.70;64.60;;;;;;4990247;28;19913;-70
2023/08/10 00:27:10;;;;;;;;;;;24.10;64.10;;;;;;4991710;28;20433;-70
2023/08/10 00:29:36;;;;;;;;;;;24.40;60.40;;;;;;4973165;28;20038;-69
2023/08/10 00:32:03;;;;;;;;;;;24.10;54.50;;;;;;4992259;28;24070;-69
2023/08/10 00:34:30;;;;;;;;;;;23.40;55.70;;;;;;4991387;28;20312;-71
2023/08/10 00:36:57;;;;;;;;;;;23.30;55.50;;;;;;4991349;28;19914;-70
2023/08/10 00:39:24;;;;;;;;;;;23.70;58.90;;;;;;4992500;28;19928;-69
2023/08/10 00:41:50;;;;;;;;;;;23.90;54.90;;;;;;4992267;28;19913;-67
2023/08/10 00:44:17;;;;;;;;;;;23.70;55.40;;;;;;4990888;28;19910;-68
2023/08/10 00:46:44;;;;;;;;;;;24.10;55.30;;;;;;4991427;28;19918;-68
2023/08/10 00:49:11;;;;;;;;;;;24.20;55.20;;;;;;4991028;28;20410;-68
2023/08/10 00:51:37;;;;;;;;;;;24.20;54.00;;;;;;4974009;28;20379;-68
2023/08/10 00:54:06;;;;;;;;;;;23.90;53.50;;;;;;4991435;28;20013;-68
2023/08/10 00:56:33;;;;;;;;;;;24.00;53.70;;;;;;4993235;28;19960;-68
2023/08/10 00:59:00;;;;;;;;;;;24.10;53.80;;;;;;4994769;28;19918;-68
2023/08/10 01:01:27;;;;;;;;;;;24.40;54.40;;;;;;4995615;28;19913;-68
2023/08/10 01:03:53;;;;;;;;;;;24.50;51.60;;;;;;4978837;28;19937;-70
2023/08/10 01:06:20;;;;;;;;;;;24.30;52.30;;;;;;4978118;28;19905;-69
2023/08/10 01:09:07;;;;;;;;;;;24.20;50.50;;;;;;4996267;28;19910;-69
2023/08/10 01:11:36;;;;;;;;;;;24.60;50.70;;;;;;4995687;28;19909;-69
2023/08/10 01:14:07;;;;;;;;;;;24.80;51.10;;;;;;4994612;28;20200;-69
2023/08/10 01:16:37;;;;;;;;;;;24.80;50.40;;;;;;4995363;28;20023;-69
2023/08/10 01:19:05;;;;;;;;;;;25.10;50.10;;;;;;4995499;28;19958;-69
2023/08/10 01:21:49;;;;;;;;;;;25.60;51.00;;;;;;4994655;28;20314;-69
2023/08/10 01:24:20;;;;;;;;;;;24.90;45.70;;;;;;4994876;28;20101;-69
2023/08/10 01:26:48;;;;;;;;;;;25.10;48.30;;;;;;4994860;28;20149;-69
2023/08/10 01:29:15;;;;;;;;;;;25.10;46.10;;;;;;4993908;28;20104;-69
2023/08/10 01:31:42;;;;;;;;;;;25.20;44.70;;;;;;4994505;28;20524;-69
2023/08/10 01:34:08;;;;;;;;;;;25.80;40.90;;;;;;4993983;28;25055;-68
2023/08/10 01:36:35;;;;;;;;;;;26.10;39.80;;;;;;4994224;28;20027;-70
2023/08/10 01:39:03;;;;;;;;;;;26.40;35.30;;;;;;4994993;28;20677;-70
2023/08/10 01:41:29;;;;;;;;;;;26.10;33.00;;;;;;4993866;28;20187;-69
2023/08/10 01:43:56;;;;;;;;;;;25.80;34.00;;;;;;4994221;28;20110;-71
2023/08/10 01:46:25;;;;;;;;;;;25.20;35.60;;;;;;4995133;28;20325;-69
2023/08/10 01:48:53;;;;;;;;;;;24.60;36.40;;;;;;4994737;28;19998;-70
2023/08/10 01:51:23;;;;;;;;;;;24.10;37.20;;;;;;4993188;28;20728;-69
2023/08/10 01:53:51;;;;;;;;;;;24.30;39.10;;;;;;5000785;28;19924;-69
2023/08/10 01:56:19;;;;;;;;;;;25.20;39.20;;;;;;5010737;28;19970;-69
2023/08/10 01:58:46;;;;;;;;;;;25.40;29.60;;;;;;5013661;28;20002;-69
2023/08/10 02:01:13;;;;;;;;;;;24.50;29.50;;;;;;5013847;28;20435;-69
2023/08/10 02:03:40;;;;;;;;;;;23.70;26.60;;;;;;4985270;28;20035;-68
2023/08/10 02:06:06;;;;;;;;;;;24.20;25.30;;;;;;4990165;28;19906;-69
2023/08/10 02:08:33;;;;;;;;;;;25.00;23.20;;;;;;4997096;28;19909;-68
2023/08/10 02:11:00;;;;;;;;;;;24.00;23.30;;;;;;4994896;28;20000;-69
2023/08/10 02:13:26;;;;;;;;;;;23.30;24.00;;;;;;4994836;28;20395;-69
2023/08/10 02:15:53;;;;;;;;;;;23.80;25.60;;;;;;4978786;28;19918;-68
2023/08/10 02:18:20;;;;;;;;;;;24.40;25.30;;;;;;4999649;28;19914;-68
2023/08/10 02:20:47;;;;;;;;;;;24.70;24.60;;;;;;5003566;28;20004;-69
2023/08/10 02:23:13;;;;;;;;;;;24.30;24.70;;;;;;4977451;28;19951;-69
2023/08/10 02:25:40;;;;;;;;;;;23.90;25.20;;;;;;4995101;28;19909;-69
2023/08/10 02:28:07;;;;;;;;;;;24.20;26.00;;;;;;4994107;28;19913;-69
2023/08/10 02:30:33;;;;;;;;;;;24.20;24.80;;;;;;4995227;28;19945;-70
2023/08/10 02:33:00;;;;;;;;;;;23.50;25.70;;;;;;4994807;28;19913;-70
2023/08/10 02:35:27;;;;;;;;;;;23.40;26.00;;;;;;4996783;28;19917;-70
2023/08/10 02:37:54;;;;;;;;;;;23.20;26.10;;;;;;4994517;28;19935;-70
2023/08/10 02:40:21;;;;;;;;;;;22.80;26.20;;;;;;5001665;28;19917;-69
2023/08/10 02:42:48;;;;;;;;;;;22.80;26.90;;;;;;5000551;28;19931;-69
2023/08/10 02:45:14;;;;;;;;;;;22.70;26.40;;;;;;5003804;28;19914;-70
2023/08/10 02:48:15;;;;;;;;;;;22.80;25.40;;;;;;5002580;28;19905;-69
2023/08/10 02:50:41;;;;;;;;;;;22.90;25.00;;;;;;5004126;28;20341;-69
2023/08/10 02:53:08;;;;;;;;;;;23.00;24.40;;;;;;5002583;28;19965;-69
2023/08/10 02:55:35;;;;;;;;;;;23.00;24.50;;;;;;5002384;28;20371;-69
2023/08/10 02:58:01;;;;;;;;;;;23.40;23.70;;;;;;5000194;28;19914;-69
2023/08/10 03:00:28;;;;;;;;;;;24.00;23.90;;;;;;5001034;28;19922;-69
2023/08/10 03:02:55;;;;;;;;;;;24.50;22.30;;;;;;5000778;28;19924;-69
2023/08/10 03:05:21;;;;;;;;;;;24.20;21.40;;;;;;4993817;28;20005;-69
2023/08/10 03:07:48;;;;;;;;;;;23.50;21.30;;;;;;4994048;28;19996;-69
2023/08/10 03:10:15;;;;;;;;;;;23.60;21.90;;;;;;4994096;28;19960;-69
2023/08/10 03:12:42;;;;;;;;;;;24.30;21.20;;;;;;4993415;28;19918;-69
2023/08/10 03:15:11;;;;;;;;;;;24.50;20.70;;;;;;4994203;28;20442;-70
2023/08/10 03:17:39;;;;;;;;;;;24.60;20.20;;;;;;4993922;28;19924;-68
2023/08/10 03:20:17;;;;;;;7.40;1.20;;;24.80;20.00;;;;;;4993416;28;20026;-68
2023/08/10 03:22:44;;;;;;;;;;;24.30;18.80;;;;;;4993744;28;19976;-69
2023/08/10 03:25:11;;;;;;;;;;;24.40;20.00;;;;;;4993525;28;19918;-68
2023/08/10 03:27:38;;;;;;;;;;;24.50;19.50;;;;;;4993832;28;19910;-69
2023/08/10 03:30:06;;;;;;;;;;;24.60;20.10;;;;;;4993377;28;19921;-69
2023/08/10 03:32:32;;;;;;;;;;;24.80;20.10;;;;;;4993570;28;19910;-69
2023/08/10 03:34:59;;;;;;;;;;;24.60;19.50;;;;;;4993750;28;19910;-70
2023/08/10 03:37:26;;;;;;;;;;;24.60;19.80;;;;;;4975922;28;19913;-69
2023/08/10 03:39:53;;;;;;;;;;;24.90;20.60;;;;;;4993588;28;19929;-69
2023/08/10 03:42:20;;;;;;;;;;;25.10;19.70;;;;;;4993103;28;19917;-69
2023/08/10 03:44:46;;;;;;;;;;;24.40;19.40;;;;;;4993441;28;19909;-69
2023/08/10 03:47:13;;;;;;;;;;;24.60;20.00;;;;;;4992979;28;19920;-69
2023/08/10 03:49:41;;;;;;;2.30;1.00;;;24.60;20.10;;;;;;4992452;28;19914;-70
2023/08/10 03:52:07;;;;;;;;;;;24.30;19.40;;;;;;4993389;28;19964;-69
2023/08/10 03:54:35;;;;;;;3.50;1.00;;;24.40;20.30;;;;;;4992461;28;20154;-70
2023/08/10 03:57:03;;;;;;;;;;;24.20;19.40;;;;;;4992583;28;20003;-69
2023/08/10 03:59:29;;;;;;;;;;;23.80;20.20;;;;;;4992799;28;20442;-70
2023/08/10 04:01:56;;;;;;;;;;;24.10;20.50;;;;;;4992763;28;19913;-70
2023/08/10 04:04:23;;;;;;;;;;;24.40;20.20;;;;;;4991959;28;20446;-69
2023/08/10 04:06:50;;;;;;;;;;;24.10;20.50;;;;;;4992822;28;20429;-70
2023/08/10 04:09:16;;;;;;;;;;;24.30;20.70;;;;;;5001347;28;19926;-69
2023/08/10 04:11:43;;;;;;;;;;;24.40;20.30;;;;;;5000037;28;20004;-69
2023/08/10 04:14:10;;;;;;;;;;;24.00;20.70;;;;;;4998645;28;20005;-68
2023/08/10 04:16:36;;;;;;;;;;;24.30;21.20;;;;;;4999626;28;19924;-69
2023/08/10 04:19:03;;;;;;;;;;;23.90;20.40;;;;;;5000012;28;19925;-69
2023/08/10 04:21:30;;;;;;;2.35;0.90;;;23.50;21.10;;;;;;4998422;28;19929;-68
2023/08/10 04:23:57;;;;;;;;;;;23.50;20.80;;;;;;4976681;28;20383;-69
2023/08/10 04:26:24;;;;;;;;;;;23.40;21.50;;;;;;4975166;28;20479;-70
2023/08/10 04:28:51;;;;;;;;;;;23.60;22.80;;;;;;4974719;28;19914;-69
2023/08/10 04:31:17;;;;;;;;;;;23.50;22.00;;;;;;4973888;28;19910;-70
2023/08/10 04:33:44;;;;;;;;;;;23.30;23.00;;;;;;4975244;28;20256;-69
2023/08/10 04:36:11;;;;;;;;;;;23.10;22.70;;;;;;4974953;28;19917;-69
2023/08/10 04:38:38;;;;;;;;;;;23.60;23.40;;;;;;4973847;28;19929;-69
2023/08/10 04:41:04;;;;;;;;;;;23.70;23.20;;;;;;4975343;28;19910;-69
2023/08/10 04:43:31;;;;;;;;;;;23.50;22.90;;;;;;4974871;28;19917;-69
2023/08/10 04:49:01;;;;;;;;;;;23.40;24.10;;;;;;4974149;28;19957;-70
2023/08/10 04:51:28;;;;;;;;;;;23.90;23.50;;;;;;4975410;28;20013;-70
2023/08/10 04:53:55;;;;;;;4.40;1.30;;;24.20;22.90;;;;;;4974711;28;20078;-70
2023/08/10 04:56:22;;;;;;;3.23;0.90;;;24.10;22.20;;;;;;4974149;28;20183;-70
2023/08/10 04:58:50;;;;;;;2.30;1.00;;;24.10;23.10;;;;;;4974579;28;20210;-69
2023/08/10 05:01:18;;;;;;;3.40;0.80;;;24.20;21.50;;;;;;4974163;28;20183;-70
2023/08/10 05:03:46;;;;;;;6.90;0.97;;;24.20;21.80;;;;;;4974614;28;20176;-69
2023/08/10 05:06:13;;;;;;;3.73;0.80;;;24.00;19.60;;;;;;4974371;28;20515;-70
2023/08/10 05:08:40;;;;;;;3.30;0.90;;;23.90;20.70;;;;;;4973804;28;20583;-70
2023/08/10 05:11:08;;;;;;;3.03;0.70;;;23.90;21.10;;;;;;4973986;28;20226;-69
2023/08/10 05:13:35;;;;;;;5.47;0.90;;;23.60;19.60;;;;;;4973680;28;20191;-70
2023/08/10 05:16:03;;;;;;;1.70;0.70;;;23.30;18.60;;;;;;4980642;28;20564;-70
2023/08/10 05:18:30;;;;;;;4.43;1.00;;;23.30;18.90;;;;;;4976724;28;20198;-70
2023/08/10 05:21:02;;;;;;;1.07;0.60;;;23.30;18.70;;;;;;4972223;28;20235;-69
2023/08/10 05:23:29;;;;;;;3.67;0.80;;;23.40;19.10;;;;;;4972380;28;20175;-69
2023/08/10 05:25:57;;;;;;;3.33;0.90;;;23.20;18.60;;;;;;4971996;28;20193;-70
2023/08/10 05:28:24;;;;;;;1.43;0.70;;;23.20;18.60;;;;;;4950975;28;20606;-69
2023/08/10 05:30:52;;;;;;;2.47;0.90;;;23.20;18.90;;;;;;4980088;28;20186;-69
2023/08/10 05:33:19;;;;;;;11.07;1.00;;;23.10;19.00;;;;;;4984013;28;20191;-70
2023/08/10 05:35:46;;;;;;;3.03;0.80;;;23.00;19.10;;;;;;4980575;28;20190;-70
2023/08/10 05:38:14;;;;;;;6.47;0.93;;;22.90;17.00;;;;;;4983785;28;20209;-69
2023/08/10 05:40:41;;;;;;;2.50;0.77;;;22.50;15.20;;;;;;4976354;28;20241;-68
2023/08/10 05:43:09;;;;;;;3.37;0.60;;;22.50;15.70;;;;;;4972770;28;20185;-69
2023/08/10 05:45:36;;;;;;;2.20;0.70;;;22.50;15.50;;;;;;4975469;28;20199;-69
2023/08/10 05:48:11;;;;;;;2.90;0.93;;;22.50;15.70;;;;;;4975575;28;20184;-70
2023/08/10 05:50:39;;;;;;;5.07;0.70;;;22.30;15.30;;;;;;4975370;28;20198;-70
2023/08/10 05:53:06;;;;;;;2.97;0.60;;;22.40;15.40;;;;;;4975601;28;20252;-69
2023/08/10 05:55:35;;;;;;;1.47;0.60;;;22.30;15.00;;;;;;4975460;28;20179;-68
2023/08/10 05:58:02;;;;;;;2.33;1.00;;;22.20;14.40;;;;;;4974654;28;20209;-69
2023/08/10 06:00:30;;;;;;;0.93;0.70;;;22.10;14.40;;;;;;4975405;28;20680;-69
2023/08/10 06:02:58;;;;;;;6.10;1.10;;;22.00;15.20;;;;;;4975690;28;20271;-70
2023/08/10 06:05:26;;;;;;;2.00;0.70;;;22.00;15.20;;;;;;4974861;28;20191;-69
2023/08/10 06:07:53;;;;;;;1.20;0.90;;;21.90;15.00;;;;;;4975323;28;20809;-69
2023/08/10 06:10:21;;;;;;;4.63;0.80;;;21.60;14.00;;;;;;4974993;28;20273;-70
2023/08/10 06:12:48;;;;;;;2.83;1.00;;;21.50;13.70;;;;;;4974712;28;20188;-69
2023/08/10 06:15:19;;;;;;;2.50;0.70;;;21.30;12.40;;;;;;4973851;28;20594;-69
2023/08/10 06:17:47;;;;;;;4.30;0.70;;;21.20;9.90;;;;;;4975021;28;20274;-69
2023/08/10 06:20:16;;;;;;;4.47;1.10;;;21.10;8.40;;;;;;4974566;28;20599;-73
2023/08/10 06:22:44;;;;;;;4.47;0.70;;;20.90;7.70;;;;;;4973778;28;20202;-70
2023/08/10 06:25:12;;;;;;;1.60;0.70;;;20.80;8.00;;;;;;4975391;28;20180;-70
2023/08/10 06:27:40;;;;;;;1.93;0.57;;;20.70;7.00;;;;;;4974622;28;20195;-70
2023/08/10 06:30:08;;;;;;;2.93;0.70;;;20.70;6.50;;;;;;4974790;28;20190;-68
2023/08/10 06:32:37;;;;;;;5.20;0.67;;;20.60;6.30;;;;;;4979521;28;20679;-68
2023/08/10 06:35:05;;;;;;;3.13;0.70;;;20.50;6.10;;;;;;4974573;28;20719;-69
2023/08/10 06:37:32;;;;;;;3.80;0.80;;;20.50;6.60;;;;;;4974799;28;20207;-70
2023/08/10 06:40:00;;;;;;;1.23;0.70;;;20.40;6.60;;;;;;4974505;28;20265;-69
2023/08/10 06:42:27;;;;;;;1.50;0.60;;;20.40;6.30;;;;;;4974452;28;20193;-70
2023/08/10 06:44:55;;;;;;;1.43;0.57;;;20.30;6.80;;;;;;4974831;28;20406;-69
2023/08/10 06:47:23;;;;;;;0.87;0.60;;;20.20;6.60;;;;;;4972959;28;20276;-70
2023/08/10 06:49:51;;;;;;;2.63;0.63;;;20.20;7.20;;;;;;4974219;28;20189;-68
2023/08/10 06:52:18;;;;;;;0.90;0.60;;;20.20;7.10;;;;;;4974825;28;20186;-70
2023/08/10 06:54:46;;;;;;;3.40;0.60;;;20.00;8.00;;;;;;4972823;28;20195;-69
2023/08/10 06:57:13;;;;;;;2.37;0.90;;;20.00;8.30;;;;;;4974353;28;20608;-70
2023/08/10 06:59:40;;;;;;;1.37;0.80;;;19.90;8.30;;;;;;4973717;28;20203;-70
2023/08/10 07:02:08;;;;;;;3.63;0.70;;;19.80;9.00;;;;;;4974588;28;20659;-70
2023/08/10 07:04:35;;;;;;;2.90;0.87;;;19.70;9.10;;;;;;4973621;28;20187;-71
2023/08/10 07:07:03;;;;;;;1.87;0.80;;;19.60;9.40;;;;;;4974045;28;20194;-70
2023/08/10 07:09:30;;;;;;;1.00;0.70;;;19.40;9.60;;;;;;4972621;28;20191;-70
2023/08/10 07:11:58;;;;;;;3.57;0.90;;;19.30;9.60;;;;;;4973746;28;20194;-70
2023/08/10 07:14:25;;;;;;;1.57;0.90;;;19.30;10.10;;;;;;4974055;28;20266;-70
2023/08/10 07:16:52;;;;;;;1.47;1.00;;;19.10;10.80;;;;;;4973658;28;20187;-70
2023/08/10 07:19:20;;;;;;;5.10;1.27;;;19.00;11.10;;;;;;4974040;28;20274;-70
2023/08/10 07:21:47;;;;;;;1.67;1.13;;;18.90;11.50;;;;;;4986518;28;20223;-70
2023/08/10 07:24:15;;;;;;;2.73;1.20;;;18.80;11.90;;;;;;4976274;28;20505;-70
2023/08/10 07:26:42;;;;;;;2.37;1.20;;;18.70;12.50;;;;;;4994162;28;20179;-70
2023/08/10 07:29:10;;;;;;;3.10;1.10;;;18.60;13.30;;;;;;4999847;28;20544;-70
2023/08/10 07:31:37;;;;;;;1.20;0.90;;;18.60;13.70;;;;;;4993895;28;20280;-70
2023/08/10 07:34:05;;;;;;;2.10;0.93;;;18.50;14.10;;;;;;4993924;28;20190;-70
2023/08/10 07:36:32;;;;;;;2.97;1.10;;;18.40;14.40;;;;;;4993952;28;20184;-70
2023/08/10 07:39:00;;;;;;;2.03;1.00;;;18.30;15.20;;;;;;4972265;28;20768;-70
2023/08/10 07:41:27;;;;;;;6.33;1.17;;;18.20;15.60;;;;;;4992695;28;20288;-70
2023/08/10 07:43:54;;;;;;;3.33;1.00;;;18.10;15.60;;;;;;4992015;28;20823;-71
2023/08/10 07:46:22;;;;;;;3.60;1.27;;;17.90;16.70;;;;;;4991874;28;20707;-70
2023/08/10 07:48:49;;;;;;;3.10;1.10;;;17.80;17.10;;;;;;4992147;28;20206;-70
2023/08/10 07:51:17;;;;;;;1.73;0.93;;;17.70;18.10;;;;;;4991920;28;20186;-70
2023/08/10 07:53:44;;;;;;;1.57;1.00;;;17.70;18.50;;;;;;4991911;28;20187;-70
2023/08/10 07:56:12;;;;;;;1.00;0.90;;;17.70;18.50;;;;;;4992141;28;20265;-70
2023/08/10 07:58:39;;;;;;;0.90;0.70;;;17.50;19.50;;;;;;4991678;28;20182;-68
2023/08/10 08:01:09;;;;;;;3.37;1.30;;;17.50;19.80;;;;;;4991557;28;20190;-69
2023/08/10 08:03:37;;;;;;;3.77;1.00;;;17.30;20.90;;;;;;4992060;28;20265;-70
2023/08/10 08:06:04;;;;;;;2.20;1.00;;;17.20;21.60;;;;;;4991492;28;20186;-70
2023/08/10 08:08:31;;;;;;;1.77;0.90;;;17.20;21.80;;;;;;4992057;28;20222;-70
2023/08/10 08:10:59;;;;;;;2.80;0.93;;;17.20;22.50;;;;;;4993068;28;20186;-70
2023/08/10 08:13:26;;;;;;;2.33;1.70;;;17.20;23.00;;;;;;4993091;28;20221;-70
2023/08/10 08:15:54;;;;;;;4.13;1.30;;;17.10;23.80;;;;;;4992363;28;20626;-70
2023/08/10 08:18:57;;;;;;;2.47;1.10;;;17.10;24.30;;;;;;4993054;28;20289;-70
2023/08/10 08:21:28;;;;;;;2.80;1.37;;;17.10;24.90;;;;;;4932928;29;20642;-70
2023/08/10 08:23:57;;;;;;;3.03;0.90;;;17.00;25.50;;;;;;4982884;28;20198;-70
2023/08/10 08:26:26;;;;;;;1.77;0.90;;;17.00;26.20;;;;;;4992563;28;20233;-70
2023/08/10 08:28:54;;;;;;;4.27;0.97;;;16.90;27.00;;;;;;4992417;28;20207;-70
2023/08/10 08:31:22;;;;;;;4.50;0.87;;;16.90;27.60;;;;;;4974743;28;20670;-69
2023/08/10 08:33:50;;;;;;;3.60;1.07;;;16.90;28.50;;;;;;4992607;28;20599;-70
2023/08/10 08:36:18;;;;;;;5.07;1.50;;;16.80;29.10;;;;;;4992170;28;20187;-70
2023/08/10 08:38:45;;;;;;;5.93;1.63;;;16.80;29.60;;;;;;4991806;28;20190;-69
2023/08/10 08:41:18;;;;;;;4.47;1.40;;;16.60;31.00;;;;;;4992553;28;20210;-72
2023/08/10 08:43:47;;;;;;;2.87;1.50;;;16.50;31.90;;;;;;4992251;28;20189;-70
2023/08/10 08:46:16;;;;;;;2.00;1.27;;;16.40;32.60;;;;;;4991807;28;20217;-70
2023/08/10 08:48:44;;;;;;;1.97;1.10;;;16.30;33.70;;;;;;4991792;28;20174;-70
2023/08/10 08:51:12;;;;;;;4.10;1.87;;;16.30;34.80;;;;;;4991949;28;20227;-71
2023/08/10 08:53:40;;;;;;;7.07;2.20;;;16.20;35.90;;;;;;4992177;28;20177;-71
2023/08/10 08:56:08;;;;;;;5.03;2.47;;;16.10;36.60;;;;;;4992419;28;20182;-70
2023/08/10 08:58:35;;;;;;;2.10;1.47;;;16.00;37.90;;;;;;4991530;28;20183;-70
2023/08/10 09:01:05;;;;;;;2.27;1.60;;;15.90;38.20;;;;;;4974526;28;20189;-72
2023/08/10 09:03:32;;;;;;;3.97;1.47;;;15.80;39.20;;;;;;4992349;28;20198;-70
2023/08/10 09:06:01;;;;;;;1.10;1.00;;;15.70;42.30;;;;;;4992320;28;20194;-70
2023/08/10 09:08:29;;;;;;;2.37;1.20;;;15.60;43.30;;;;;;4991327;28;20183;-69
2023/08/10 09:10:57;;;;;;;3.67;1.57;;;15.50;46.90;;;;;;4992388;28;20177;-70
2023/08/10 09:13:25;;;;;;;5.97;2.60;;;15.40;48.00;;;;;;4992340;28;20673;-71
2023/08/10 09:16:16;;;;;;;6.87;2.50;;;15.20;49.10;;;;;;4991658;28;20175;-71
2023/08/10 09:18:45;;;;;;;4.33;2.60;;;15.00;52.50;;;;;;4995323;28;20552;-71
2023/08/10 09:21:17;;;;;;;6.00;3.23;;;14.90;55.20;;;;;;4995589;28;20695;-70
2023/08/10 09:23:47;;;;;;;6.43;2.83;;;14.80;58.10;;;;;;4995452;28;20178;-70
2023/08/10 09:26:18;;;;;;;4.30;2.03;;;14.70;64.80;;;;;;5010571;28;20543;-71
2023/08/10 09:28:48;;;;;;;4.43;2.77;;;14.90;63.40;;;;;;4994664;28;20272;-70
2023/08/10 09:31:21;;;;;;;6.33;2.10;;;14.90;64.40;;;;;;4995409;28;20637;-71
2023/08/10 09:33:54;;;;;;;2.27;1.70;;;14.90;65.50;;;;;;4995715;28;20673;-71
2023/08/10 09:36:27;;;;;;;3.50;1.40;;;14.90;67.20;;;;;;4995576;28;20182;-71
2023/08/10 09:38:56;;;;;;;7.60;1.17;;;14.80;67.80;;;;;;4995930;28;20668;-70
2023/08/10 09:41:24;;;;;;;1.23;1.10;;;14.90;67.10;;;;;;4996585;28;20281;-72
2023/08/10 09:43:52;;;;;;;5.13;1.83;;;14.90;67.80;;;;;;4996983;28;20183;-71
2023/08/10 09:46:19;;;;;;;1.57;0.90;;;15.00;69.10;;;;;;4996889;28;20190;-71
2023/08/10 09:48:52;;;;;;;2.10;1.10;;;15.00;69.70;;;;;;5003638;28;20174;-71
2023/08/10 09:51:19;;;;;;;4.37;2.00;;;15.10;67.40;;;;;;4996385;28;20197;-71
2023/08/10 09:53:47;;;;;;;4.40;2.10;;;15.20;65.80;;;;;;4981932;28;20549;-70
2023/08/10 09:56:15;;;;;;;5.33;1.40;;;15.20;66.00;;;;;;5014195;28;20176;-70
2023/08/10 09:58:43;;;;;;;4.47;1.30;;;15.30;65.00;;;;;;5012602;28;20193;-71
2023/08/10 10:01:11;;;;;;;3.33;1.10;;;15.40;64.60;;;;;;4996808;28;20178;-70
2023/08/10 10:03:38;;;;;;;5.33;0.90;;;15.40;65.30;;;;;;4996278;28;20240;-70
2023/08/10 10:06:06;;;;;;;0.97;0.80;;;15.30;66.00;;;;;;4998991;28;20188;-71
2023/08/10 10:08:37;;;;;;;3.30;1.10;;;15.30;66.00;;;;;;4998641;28;20250;-71
2023/08/10 10:11:11;;;;;;;2.40;1.17;;;15.30;67.00;;;;;;4999306;28;20185;-69
2023/08/10 10:13:43;;;;;;;3.83;1.10;;;15.20;67.60;;;;;;4999323;28;20205;-71
2023/08/10 10:16:12;;;;;;;3.43;1.27;;;15.10;69.20;;;;;;4996426;28;20185;-68
2023/08/10 10:18:40;;;;;;;2.70;0.90;;;15.00;71.30;;;;;;5002249;28;20189;-70
2023/08/10 10:21:08;;;;;;;3.87;0.97;;;14.90;74.30;;;;;;4995590;28;20242;-71
2023/08/10 10:23:41;;;;;;;2.63;1.00;;;14.70;77.10;;;;;;4997239;28;20185;-71
2023/08/10 10:26:10;;;;;;;4.27;1.00;;;14.60;80.00;;;;;;5004446;28;20193;-69
2023/08/10 10:28:41;;;;;;;5.07;1.30;;;14.60;82.40;;;;;;4997407;28;20247;-68
2023/08/10 10:31:12;;;;;;;5.07;1.37;;;14.50;83.80;;;;;;4995776;28;20197;-70
2023/08/10 10:33:55;;;;;;;2.30;1.23;;;14.30;91.40;;;;;;4995753;28;20738;-70
2023/08/10 10:36:23;;;;;;;4.43;1.13;;;14.00;93.80;;;;;;5000509;28;20648;-69
2023/08/10 10:38:56;;;;;;;4.27;1.50;;;14.00;96.80;;;;;;5001610;28;20238;-70
2023/08/10 10:41:37;;;;;;;7.87;2.07;;;14.10;96.90;;;;;;5003289;28;20222;-70
2023/08/10 10:44:06;;;;;;;2.80;1.47;;;14.00;99.00;;;;;;4987229;28;20196;-69
2023/08/10 10:46:34;;;;;;;2.57;1.33;;;14.00;99.90;;;;;;4996066;28;20187;-70
2023/08/10 10:49:07;;;;;;;3.33;1.47;;;13.90;99.90;;;;;;4978118;28;20561;-70
2023/08/10 10:51:49;;;;;;;2.90;1.17;;;13.90;99.90;;;;;;4995557;28;20620;-70
2023/08/10 10:54:17;;;;;;;2.17;1.13;;;14.00;99.90;;;;;;4995537;28;20216;-71
2023/08/10 10:56:44;;;;;;;4.10;1.30;;;14.10;99.90;;;;;;4995500;28;20186;-70
2023/08/10 10:59:14;;;;;;;3.60;1.20;;;14.10;99.90;;;;;;4995215;28;20570;-69
2023/08/10 11:01:45;;;;;;;2.87;1.10;;;14.10;99.90;;;;;;4995012;28;20185;-70
2023/08/10 11:04:13;;;;;;;5.13;1.30;;;14.10;99.90;;;;;;4995113;28;20186;-71
2023/08/10 11:06:41;;;;;;;2.20;1.00;;;14.00;99.90;;;;;;4995171;28;20190;-70
2023/08/10 11:09:09;;;;;;;6.03;1.40;;;14.00;99.90;;;;;;4994981;28;20549;-71
2023/08/10 11:11:37;;;;;;;5.27;1.80;;;14.00;99.90;;;;;;4995234;28;20186;-70
2023/08/10 11:14:05;;;;;;;5.57;1.77;;;13.90;99.90;;;;;;4993101;28;20344;-69
2023/08/10 11:16:42;;;;;;;3.53;1.83;;;13.70;99.90;;;;;;4994867;28;20782;-69
2023/08/10 11:19:13;;;;;;;4.40;1.40;;;13.60;99.90;;;;;;4994297;28;20282;-70
2023/08/10 11:21:44;;;;;;;3.60;1.53;;;13.40;99.90;;;;;;4973626;28;20240;-70
2023/08/10 11:24:12;;;;;;;4.40;1.37;;;13.20;99.90;;;;;;4974173;28;20565;-70
2023/08/10 11:26:41;;;;;;;4.60;1.40;;;12.90;99.90;;;;;;4974899;28;20716;-70
2023/08/10 11:29:09;;;;;;;5.37;1.40;;;12.70;99.90;;;;;;4975155;28;20582;-70
2023/08/10 11:31:42;;;;;;;5.50;1.50;;;12.60;99.90;;;;;;4981591;28;20226;-70
2023/08/10 11:34:36;;;;;;;4.53;1.37;;;12.50;99.90;;;;;;4994312;28;20190;-69
2023/08/10 11:37:04;;;;;;;2.80;1.27;;;12.40;99.90;;;;;;4983221;28;20671;-71
2023/08/10 11:39:32;;;;;;;3.47;1.40;;;12.30;99.90;;;;;;4974296;28;20291;-70
2023/08/10 11:41:59;;;;;;;2.80;1.33;;;12.20;99.90;;;;;;4974482;28;20190;-69
2023/08/10 11:44:30;;;;;;;3.67;1.40;;;12.00;99.90;;;;;;4974830;28;20197;-69
2023/08/10 11:46:59;;;;;;;2.47;1.40;;;11.90;99.90;;;;;;4973490;28;20189;-69
2023/08/10 11:49:29;;;;;;;3.70;1.50;;;11.80;99.90;;;;;;4974458;28;20204;-69
2023/08/10 11:52:17;;;;;;;5.27;1.50;;;11.70;99.90;;;;;;4974375;28;20191;-69
2023/08/10 11:54:55;;;;;;;3.47;1.23;;;11.80;99.90;;;;;;4974279;28;20182;-69
2023/08/10 11:57:23;;;;;;;2.37;1.33;;;12.10;99.90;;;;;;4974773;28;20297;-69
2023/08/10 11:59:51;;;;;;;6.10;1.60;;;12.30;99.90;;;;;;4974585;28;20668;-69
2023/08/10 12:02:19;;;;;;;5.43;1.50;;;12.50;99.90;;;;;;4978161;28;20186;-69
2023/08/10 12:04:48;;;;;;;4.27;1.50;;;12.60;99.90;;;;;;4992534;28;20183;-70
2023/08/10 12:07:23;;;;;;;5.17;1.40;;;12.80;99.90;;;;;;4979919;28;20280;-69
2023/08/10 12:10:01;;;;;;;3.53;1.30;;;12.90;99.90;;;;;;4974805;28;20303;-70
2023/08/10 12:12:30;;;;;;;6.63;1.60;;;13.10;99.90;;;;;;4972278;28;20670;-69
2023/08/10 12:15:08;;;;;;;3.40;1.27;;;13.10;99.90;;;;;;4974177;28;20198;-69
2023/08/10 12:17:37;;;;;;;3.07;1.10;;;13.10;99.90;;;;;;4974018;28;20200;-69
2023/08/10 12:20:06;;;;;;;3.00;1.43;;;13.20;99.90;;;;;;4974059;28;20616;-69
2023/08/10 12:22:40;;;;;;;5.07;1.23;;;13.30;99.90;;;;;;4992376;28;20237;-69
2023/08/10 12:25:08;;;;;;;4.17;1.27;;;13.30;99.90;;;;;;4993703;28;20185;-69
2023/08/10 12:27:36;;;;;;;4.53;1.50;;;13.40;99.90;;;;;;4975936;28;20193;-69
2023/08/10 12:30:04;;;;;;;2.63;1.00;;;13.30;99.90;;;;;;4975854;28;20228;-69
2023/08/10 12:32:32;;;;;;;3.80;1.27;;;13.30;99.90;;;;;;4975995;28;20655;-69
2023/08/10 12:35:00;;;;;;;3.37;1.40;;;13.20;99.90;;;;;;4994469;28;20192;-69
2023/08/10 12:37:29;;;;;;;4.80;1.10;;;13.10;99.90;;;;;;5013111;28;20195;-69
2023/08/10 12:39:57;;;;;;;2.80;1.03;;;13.10;99.90;;;;;;4995998;28;20219;-69
2023/08/10 12:42:24;;;;;;;7.33;1.27;;;13.00;99.90;;;;;;4990695;28;20216;-69
2023/08/10 12:44:53;;;;;;;6.50;1.30;;;13.00;99.90;;;;;;4992416;28;20623;-69
2023/08/10 12:47:21;;;;;;;5.50;1.20;;;13.00;99.90;;;;;;4974504;28;20194;-69
2023/08/10 12:49:48;;;;;;;2.87;1.13;;;12.80;99.90;;;;;;4992838;28;20183;-70
2023/08/10 12:52:16;;;;;;;3.13;0.93;;;12.80;99.90;;;;;;4994000;28;20188;-69
2023/08/10 12:54:44;;;;;;;6.37;1.20;;;12.60;99.90;;;;;;4997259;28;20192;-69
2023/08/10 12:57:12;;;;;;;6.90;1.43;;;12.40;99.90;;;;;;4979504;28;20181;-69
2023/08/10 12:59:40;;;;;;;2.23;0.90;;;12.30;99.90;;;;;;4996991;28;20212;-69
2023/08/10 13:02:08;;;;;;;7.30;1.27;;;12.10;99.90;;;;;;4996277;28;20188;-70
2023/08/10 13:04:36;;;;;;;3.13;1.40;;;11.90;99.90;;;;;;4996968;28;20682;-69
2023/08/10 13:07:04;;;;;;;2.93;1.20;;;11.80;99.90;;;;;;4996020;28;20563;-69
2023/08/10 13:09:33;;;;;;;4.40;1.37;;;11.60;99.90;;;;;;4996208;28;20677;-69
2023/08/10 13:12:01;;;;;;;6.73;1.70;;;11.60;99.90;;;;;;4997092;28;20171;-69
2023/08/10 13:14:29;;;;;;;7.27;2.00;;;11.40;99.90;;;;;;4997332;28;20615;-69
2023/08/10 13:16:57;;;;;;;3.63;1.27;;;11.30;99.90;;;;;;4996656;28;20222;-70
2023/08/10 13:19:24;;;;;;;2.40;1.27;;;11.20;99.90;;;;;;4978954;28;20587;-69
2023/08/10 13:21:52;;;;;;;3.03;1.40;;;11.10;99.90;;;;;;4996222;28;20266;-69
2023/08/10 13:24:20;;;;;;;7.47;1.60;;;10.90;99.90;;;;;;4978802;28;20235;-69
2023/08/10 13:26:48;;;;;;;5.00;1.90;;;10.80;99.90;;;;;;4996292;28;20175;-70